Weather - Helsinki Query any day in the database

Current weather  

Weather data for a selected day (2006-01-01 -2020-10-30)
Enter date:     <-     scroll days         ->
day curves
Low temperature°C -3.722:00
High temperature°C +1.600:00
Low wind chill°C -9.809:00
Average temperature°C -1.1 
High wind speed (10 min) m/s 15.700:30
Low pressurehPa 981.401:00
High pressurehPa 995.123:30
Low R.H% 6801:00
High R.H% 9522:30
Day weather data as a table
Date Time Temp
°C
Chill
°C
Pressure
hPA
Wind
m/s
Hum
%
Precip
mm
2017-12-24 23:30:00 -2.9  -7.5  995.1 3.6 92 -
2017-12-24 23:00:00 -2.9  -7.3  994.9 3.3 94 -
2017-12-24 22:30:00 -3.6  -7.9  994.9 3.1 95 -
2017-12-24 22:00:00 -3.7  -7.7  994.7 2.7 94 -
2017-12-24 21:30:00 -3.1  -7.2  994.5 3.0 91 -
2017-12-24 21:00:00 -2.2  -6.9  994.2 3.9 86 -
2017-12-24 20:30:00 -1.9  -6.5  994.0 3.8 84 -
2017-12-24 20:00:00 -1.1  -5.9  993.7 4.4 79 -
2017-12-24 19:30:00 -0.8  -5.9  993.6 4.9 78 -
2017-12-24 19:00:00 -0.7  -6.1  993.6 5.5 77 -
2017-12-24 18:30:00 -0.8  -6.5  993.6 6.1 79 -
2017-12-24 18:00:00 -0.8  -5.9  993.5 5.0 81 -
2017-12-24 17:30:00 -0.1  -6.1  993.1 7.0 79 -
2017-12-24 17:00:00 -0.5  -6.4  993.0 6.6 80 -
2017-12-24 16:30:00 -0.6  -6.5  992.6 6.6 78 -
2017-12-24 16:00:00 -0.5  -6.0  992.5 5.8 78 -
2017-12-24 15:30:00 -0.3  -6.4  992.3 7.2 77 -
2017-12-24 15:00:00 0.1  -6.7  992.1 9.3 75 -
2017-12-24 14:30:00 -0.2  -7.1  992.1 9.3 78 -
2017-12-24 14:00:00 -0.4  -7.6  991.6 10.0 76 -
2017-12-24 13:30:00 -0.5  -7.3  991.3 8.9 76 -
2017-12-24 13:00:00 -0.6  -7.4  990.9 8.7 76 -
2017-12-24 12:30:00 -0.8  -7.9  990.7 9.4 76 -
2017-12-24 12:00:00 -1.3  -8.2  990.7 8.3 74 -
2017-12-24 11:30:00 -1.6  -7.9  990.4 6.9 72 -
2017-12-24 11:00:00 -1.8  -8.8  989.9 8.4 73 -
2017-12-24 10:30:00 -2.1  -9.2  989.6 8.4 74 -
2017-12-24 10:00:00 -2.4  -9.2  989.0 7.5 76 -
2017-12-24 09:30:00 -2.4  -9.6  988.7 8.3 75 -
2017-12-24 09:00:00 -2.2  -9.8  988.2 9.4 74 -
2017-12-24 08:30:00 -2.0  -9.6  987.9 9.6 72 -
2017-12-24 08:00:00 -1.9  -9.2  987.4 8.9 72 -
2017-12-24 07:30:00 -1.7  -9.3  986.7 9.9 71 -
2017-12-24 07:00:00 -1.5  -9.3  986.2 10.8 70 -
2017-12-24 06:30:00 -1.3  -8.6  985.7 9.4 71 -
2017-12-24 06:00:00 -1.2  -8.3  985.3 9.0 71 -
2017-12-24 05:30:00 -1.2  -8.5  984.9 9.7 72 -
2017-12-24 05:00:00 -0.8  -7.9  984.5 9.5 71 -
2017-12-24 04:30:00 -0.8  -7.7  984.2 8.7 74 -
2017-12-24 04:00:00 -0.8  -7.9  983.8 9.3 74 -
2017-12-24 03:30:00 -0.7  -7.8  983.6 9.5 75 -
2017-12-24 03:00:00 -0.3  -7.3  983.2 9.5 74 -
2017-12-24 02:30:00 0.2  -6.7  982.5 9.8 71 -
2017-12-24 02:00:00 0.4  -7.0  982.1 11.7 70 -
2017-12-24 01:30:00 0.9  -6.3  981.7 11.4 69 -
2017-12-24 01:00:00 1.2  -6.4  981.4 13.5 68 -
2017-12-24 00:30:00 1.5  -6.5  981.4 15.7 69 -
2017-12-24 00:00:00 1.6  -5.4  981.5 11.8 74 -
Unit conversions: